createdAt,value
2022-08-27T05:34:49.644Z,68.99
2022-08-27T05:37:17.552Z,67.93
2022-08-27T05:39:45.512Z,67.74
2022-08-27T05:42:13.536Z,67.20
2022-08-27T05:44:42.098Z,66.18
2022-08-27T05:47:10.491Z,65.04
2022-08-27T05:49:38.869Z,64.81
2022-08-27T05:52:11.613Z,63.62
2022-08-27T05:54:39.883Z,64.33
2022-08-27T05:57:08.149Z,65.67
2022-08-27T05:59:54.374Z,63.85
2022-08-27T06:02:22.529Z,62.86
2022-08-27T06:04:50.977Z,62.05
2022-08-27T06:07:20.461Z,61.24
2022-08-27T06:09:48.438Z,59.56
2022-08-27T06:12:16.349Z,59.70
2022-08-27T06:14:44.260Z,59.92
2022-08-27T06:17:12.130Z,59.10
2022-08-27T06:19:42.378Z,58.54
2022-08-27T06:22:11.133Z,57.89
2022-08-27T06:24:41.439Z,57.43
2022-08-27T06:27:12.356Z,56.50
2022-08-27T06:29:40.967Z,56.66
2022-08-27T06:32:10.085Z,56.92
2022-08-27T06:34:38.884Z,56.80
2022-08-27T06:37:07.466Z,57.09
2022-08-27T06:39:36.270Z,57.43
2022-08-27T06:42:07.515Z,57.91
2022-08-27T06:44:35.467Z,55.68
2022-08-27T06:47:04.680Z,55.02
2022-08-27T06:49:33.834Z,54.78
2022-08-27T06:52:03.398Z,54.45
2022-08-27T06:54:32.299Z,54.41
2022-08-27T06:57:00.998Z,53.62
2022-08-27T06:59:30.319Z,53.29
2022-08-27T07:01:58.572Z,53.30
2022-08-27T07:04:30.749Z,52.35
2022-08-27T07:07:01.367Z,52.30
2022-08-27T07:09:31.983Z,52.30
2022-08-27T07:12:00.249Z,50.94
2022-08-27T07:14:28.330Z,50.73
2022-08-27T07:16:57.587Z,51.43
2022-08-27T07:19:25.472Z,48.88
2022-08-27T07:21:53.368Z,49.03
2022-08-27T07:24:21.701Z,47.44
2022-08-27T07:26:49.635Z,48.44
2022-08-27T07:29:17.796Z,48.07
2022-08-27T07:31:46.006Z,47.79
2022-08-27T07:34:15.698Z,46.32
2022-08-27T07:36:43.608Z,46.39
2022-08-27T07:39:13.883Z,47.17
2022-08-27T07:41:55.606Z,47.47
2022-08-27T07:44:30.983Z,45.70
2022-08-27T07:47:02.543Z,46.67
2022-08-27T07:49:35.052Z,46.50
2022-08-27T07:52:03.191Z,45.48
2022-08-27T07:54:31.148Z,45.82
2022-08-27T07:56:59.251Z,44.37
2022-08-27T07:59:27.817Z,44.19
2022-08-27T08:01:57.012Z,43.70
2022-08-27T08:04:26.635Z,43.37
2022-08-27T08:06:56.668Z,43.45
2022-08-27T08:09:25.228Z,42.96
2022-08-27T08:11:54.166Z,42.99
2022-08-27T08:14:22.167Z,43.15
2022-08-27T08:16:50.115Z,42.13
2022-08-27T08:19:18.255Z,42.24
2022-08-27T08:21:46.164Z,40.83
2022-08-27T08:24:15.432Z,41.18
2022-08-27T08:26:44.331Z,41.10
2022-08-27T08:29:18.063Z,39.89
2022-08-27T08:31:50.134Z,38.85
2022-08-27T08:34:19.317Z,39.15
2022-08-27T08:36:54.011Z,39.75
2022-08-27T08:39:24.124Z,38.69
2022-08-27T08:41:54.915Z,37.87
2022-08-27T08:44:34.072Z,37.01
2022-08-27T08:47:09.510Z,36.34
2022-08-27T08:49:45.400Z,37.28
2022-08-27T08:52:30.441Z,37.26
2022-08-27T08:55:09.800Z,37.06
2022-08-27T08:57:44.205Z,35.58
2022-08-27T09:00:14.725Z,36.61
2022-08-27T09:02:50.370Z,36.94
2022-08-27T09:05:18.622Z,35.71
2022-08-27T09:08:05.057Z,36.54
2022-08-27T09:10:46.571Z,36.55
2022-08-27T09:13:22.652Z,36.46
2022-08-27T09:15:53.222Z,36.30
2022-08-27T09:18:21.120Z,34.91
2022-08-27T09:20:59.208Z,35.04
2022-08-27T09:23:41.188Z,35.70
2022-08-27T09:26:20.596Z,35.99
2022-08-27T09:29:06.430Z,34.82
2022-08-27T09:31:40.656Z,34.29
2022-08-27T09:34:08.593Z,33.32
2022-08-27T09:36:36.640Z,33.74
2022-08-27T09:39:07.385Z,32.77
2022-08-27T09:41:47.786Z,32.13
2022-08-27T09:44:19.322Z,32.60
2022-08-27T09:46:55.451Z,32.15
2022-08-27T09:49:24.225Z,32.09
2022-08-27T09:51:53.956Z,31.12
2022-08-27T09:54:43.854Z,29.59
2022-08-27T09:57:15.444Z,29.57
2022-08-27T09:59:53.940Z,29.52
2022-08-27T10:02:24.102Z,28.67
2022-08-27T10:04:54.046Z,28.24
2022-08-27T10:07:34.840Z,28.03
2022-08-27T10:10:10.897Z,26.67
2022-08-27T10:12:51.967Z,27.04
2022-08-27T10:15:20.087Z,28.06
2022-08-27T10:17:58.086Z,27.82
2022-08-27T10:20:35.241Z,28.37
2022-08-27T10:23:12.824Z,28.32
2022-08-27T10:25:50.219Z,28.57
2022-08-27T10:28:31.897Z,27.85
2022-08-27T10:31:11.534Z,27.03
2022-08-27T10:33:50.152Z,26.93
2022-08-27T10:36:32.336Z,27.11
2022-08-27T10:39:07.619Z,25.75
2022-08-27T10:41:42.920Z,25.88
2022-08-27T10:44:30.308Z,25.15
2022-08-27T10:47:11.029Z,24.02
2022-08-27T10:49:47.816Z,25.68
2022-08-27T10:52:21.276Z,24.77
2022-08-27T10:54:54.554Z,25.00
2022-08-27T10:57:53.899Z,25.10
2022-08-27T11:00:24.425Z,24.76
2022-08-27T11:02:56.236Z,25.10
2022-08-27T11:05:30.060Z,25.03
2022-08-27T11:08:05.302Z,24.05
2022-08-27T11:10:37.481Z,25.50
2022-08-27T11:13:07.899Z,25.66
2022-08-27T11:15:41.489Z,24.96
2022-08-27T11:18:16.812Z,25.00
2022-08-27T11:20:53.746Z,24.79
2022-08-27T11:23:27.210Z,24.04
2022-08-27T11:26:02.122Z,24.84
2022-08-27T11:28:37.582Z,24.53
2022-08-27T11:31:16.068Z,24.33
2022-08-27T11:33:48.521Z,23.76
2022-08-27T11:36:54.018Z,24.42
2022-08-27T11:39:41.139Z,24.78
2022-08-27T11:42:15.227Z,24.81
2022-08-27T11:44:44.967Z,24.08
2022-08-27T11:47:20.281Z,23.83
2022-08-27T11:49:52.119Z,23.42
2022-08-27T11:52:27.142Z,23.47
2022-08-27T11:55:10.724Z,23.31
2022-08-27T11:57:40.197Z,24.25
2022-08-27T12:00:21.377Z,23.21
2022-08-27T12:03:00.762Z,23.62
2022-08-27T12:05:38.079Z,24.73
2022-08-27T12:08:20.300Z,25.05
2022-08-27T12:11:02.467Z,25.13
2022-08-27T12:13:39.103Z,24.79
2022-08-27T12:16:17.686Z,26.31
2022-08-27T12:19:01.172Z,25.20
2022-08-27T12:21:46.338Z,25.35
2022-08-27T12:24:39.481Z,25.42
2022-08-27T12:27:18.255Z,25.33
2022-08-27T12:29:51.062Z,25.74
2022-08-27T12:32:29.855Z,26.53
2022-08-27T12:35:09.112Z,26.08
2022-08-27T12:37:40.479Z,26.72
2022-08-27T12:40:19.477Z,25.92
2022-08-27T12:42:48.945Z,25.80
2022-08-27T12:45:22.892Z,26.30
2022-08-27T12:47:52.398Z,26.78
2022-08-27T12:50:28.560Z,26.21
2022-08-27T12:53:19.170Z,25.65
2022-08-27T12:55:58.098Z,24.50
2022-08-27T12:58:36.585Z,24.79
2022-08-27T13:01:28.439Z,25.25
2022-08-27T13:03:57.767Z,24.29
2022-08-27T13:06:33.057Z,24.71
2022-08-27T13:09:02.860Z,25.39
2022-08-27T13:11:33.190Z,26.60
2022-08-27T13:14:10.618Z,26.73
2022-08-27T13:16:40.215Z,26.53
2022-08-27T13:19:09.533Z,27.66
2022-08-27T13:21:38.905Z,27.17
2022-08-27T13:24:07.928Z,28.25
2022-08-27T13:26:38.997Z,28.49
2022-08-27T13:29:08.517Z,28.51
2022-08-27T13:31:37.294Z,28.13
2022-08-27T13:34:07.026Z,28.59
2022-08-27T13:36:58.049Z,27.82
2022-08-27T13:39:26.931Z,28.33
2022-08-27T13:41:55.795Z,28.20
2022-08-27T13:44:28.082Z,27.73
2022-08-27T13:47:03.273Z,27.78
2022-08-27T13:49:39.659Z,28.05
2022-08-27T13:52:23.241Z,28.05
2022-08-27T13:55:05.890Z,28.35
2022-08-27T13:57:45.620Z,27.87
2022-08-27T14:00:18.172Z,28.43
2022-08-27T14:02:55.897Z,28.18
2022-08-27T14:05:33.814Z,28.09
2022-08-27T14:08:13.940Z,27.92
2022-08-27T14:10:47.251Z,27.42
2022-08-27T14:13:25.674Z,27.57
2022-08-27T14:15:56.708Z,27.20
2022-08-27T14:18:48.046Z,27.51
2022-08-27T14:21:15.703Z,27.16
2022-08-27T14:23:45.058Z,27.08
2022-08-27T14:26:15.011Z,26.99
2022-08-27T14:28:43.181Z,27.60
2022-08-27T14:31:11.701Z,27.07
2022-08-27T14:33:39.707Z,27.05
2022-08-27T14:36:08.712Z,26.88
2022-08-27T14:38:41.034Z,27.07
2022-08-27T14:41:10.625Z,27.34
2022-08-27T14:43:38.868Z,27.50
2022-08-27T14:46:08.837Z,27.70
2022-08-27T14:48:37.384Z,27.63
2022-08-27T14:51:13.192Z,27.97
2022-08-27T14:53:41.272Z,27.21
2022-08-27T14:56:10.673Z,27.04
2022-08-27T14:58:38.829Z,27.55
2022-08-27T15:01:07.233Z,27.56
2022-08-27T15:03:38.993Z,27.73
2022-08-27T15:06:07.441Z,28.45
2022-08-27T15:08:36.929Z,27.88
2022-08-27T15:11:05.403Z,28.27
2022-08-27T15:13:38.379Z,28.57
2022-08-27T15:16:07.015Z,28.55
2022-08-27T15:18:34.913Z,28.04
2022-08-27T15:21:02.994Z,28.30
2022-08-27T15:23:31.027Z,28.22
2022-08-27T15:25:58.952Z,28.50
2022-08-27T15:28:26.838Z,28.55
2022-08-27T15:30:56.186Z,28.46
2022-08-27T15:33:24.160Z,28.63
2022-08-27T15:35:52.252Z,28.53
2022-08-27T15:38:20.140Z,28.76
2022-08-27T15:40:49.227Z,28.96
2022-08-27T15:43:19.245Z,28.94
2022-08-27T15:45:47.124Z,29.53
2022-08-27T15:48:16.368Z,28.66
2022-08-27T15:50:44.497Z,28.93
2022-08-27T15:53:12.414Z,29.04
2022-08-27T15:55:42.348Z,28.93
2022-08-27T15:58:10.781Z,28.85
2022-08-27T16:00:39.841Z,28.95
2022-08-27T16:03:11.514Z,29.16
2022-08-27T16:05:44.459Z,29.66
2022-08-27T16:08:13.247Z,31.49
2022-08-27T16:10:41.518Z,32.14
2022-08-27T16:13:09.409Z,32.39
2022-08-27T16:15:40.542Z,33.36
2022-08-27T16:18:09.350Z,33.47
2022-08-27T16:20:37.233Z,34.07
2022-08-27T16:23:06.501Z,34.35
2022-08-27T16:25:34.554Z,34.34
2022-08-27T16:28:02.449Z,34.54
2022-08-27T16:30:30.868Z,34.99
2022-08-27T16:32:58.861Z,35.18
2022-08-27T16:35:26.779Z,34.80
2022-08-27T16:37:54.700Z,35.75
2022-08-27T16:40:24.114Z,35.46
2022-08-27T16:42:52.970Z,36.40
2022-08-27T16:45:24.142Z,36.35
2022-08-27T16:48:09.796Z,36.63
2022-08-27T16:50:37.983Z,36.51
2022-08-27T16:53:08.464Z,36.90
2022-08-27T16:55:39.186Z,37.12
2022-08-27T16:58:10.513Z,37.64
2022-08-27T17:00:38.942Z,38.09
2022-08-27T17:03:09.285Z,38.19
2022-08-27T17:05:37.564Z,38.29
2022-08-27T17:08:09.513Z,38.70
2022-08-27T17:10:45.683Z,38.44
2022-08-27T17:13:15.757Z,38.66
2022-08-27T17:15:44.106Z,39.81
2022-08-27T17:18:12.256Z,40.25
2022-08-27T17:20:40.333Z,40.81
2022-08-27T17:23:10.945Z,41.03
2022-08-27T17:25:38.857Z,41.55
2022-08-27T17:28:08.199Z,41.57
2022-08-27T17:30:36.166Z,41.91
2022-08-27T17:33:04.171Z,42.25
2022-08-27T17:35:32.068Z,42.28
2022-08-27T17:38:00.053Z,43.02
2022-08-27T17:40:28.152Z,43.54
2022-08-27T17:42:56.103Z,44.45
2022-08-27T17:45:25.368Z,44.40
2022-08-27T17:47:53.230Z,44.68
2022-08-27T17:50:21.132Z,44.85
2022-08-27T17:52:49.075Z,45.17
2022-08-27T17:55:16.968Z,45.32
2022-08-27T17:57:45.259Z,45.29
2022-08-27T18:00:14.882Z,45.35
2022-08-27T18:02:46.681Z,45.87
2022-08-27T18:05:16.644Z,46.34
2022-08-27T18:07:45.851Z,46.64
2022-08-27T18:10:16.154Z,46.08
2022-08-27T18:12:45.884Z,46.08
2022-08-27T18:15:18.918Z,45.79
2022-08-27T18:17:53.225Z,45.18
2022-08-27T18:20:23.515Z,45.45
2022-08-27T18:22:53.449Z,45.15
2022-08-27T18:25:24.704Z,45.53
2022-08-27T18:27:56.784Z,46.03
2022-08-27T18:30:25.857Z,46.43
2022-08-27T18:32:55.652Z,46.70
2022-08-27T18:35:26.341Z,46.97
2022-08-27T18:37:55.098Z,47.44
2022-08-27T18:40:25.261Z,47.63
2022-08-27T18:42:53.554Z,47.89
2022-08-27T18:45:26.582Z,47.62
2022-08-27T18:48:00.092Z,47.94
2022-08-27T18:50:28.441Z,47.93
2022-08-27T18:52:57.916Z,47.88
2022-08-27T18:55:28.650Z,48.32
2022-08-27T18:57:56.655Z,48.24
2022-08-27T19:00:24.902Z,49.24
2022-08-27T19:02:53.707Z,49.81
2022-08-27T19:05:27.139Z,49.28
2022-08-27T19:07:56.147Z,48.37
2022-08-27T19:10:24.924Z,48.02
2022-08-27T19:12:52.972Z,48.25
2022-08-27T19:15:21.366Z,48.52
2022-08-27T19:17:52.145Z,49.06
2022-08-27T19:20:20.424Z,48.75
2022-08-27T19:22:49.964Z,49.40
2022-08-27T19:25:19.152Z,51.27
2022-08-27T19:27:47.782Z,51.74
2022-08-27T19:30:17.276Z,52.49
2022-08-27T19:32:45.925Z,52.98
2022-08-27T19:35:15.242Z,53.55
2022-08-27T19:37:52.759Z,54.07
2022-08-27T19:40:23.013Z,54.60
2022-08-27T19:42:51.415Z,54.68
2022-08-27T19:45:23.718Z,54.61
2022-08-27T19:47:52.855Z,54.68
2022-08-27T19:50:21.527Z,55.23
2022-08-27T19:52:49.804Z,53.55
2022-08-27T19:55:18.113Z,53.95
2022-08-27T19:57:47.869Z,53.31
2022-08-27T20:00:19.332Z,53.83
2022-08-27T20:02:47.447Z,54.03
2022-08-27T20:05:19.714Z,54.21
2022-08-27T20:07:47.924Z,54.72
2022-08-27T20:10:16.410Z,55.17
2022-08-27T20:12:44.623Z,55.35
2022-08-27T20:15:14.576Z,55.33
2022-08-27T20:17:43.694Z,56.03
2022-08-27T20:20:12.141Z,55.62
2022-08-27T20:22:40.788Z,56.08
2022-08-27T20:25:09.595Z,56.50
2022-08-27T20:27:38.321Z,56.68
2022-08-27T20:30:08.223Z,56.52
2022-08-27T20:32:37.537Z,56.40
2022-08-27T20:35:07.068Z,56.52
2022-08-27T20:37:40.143Z,57.18
2022-08-27T20:40:14.403Z,57.22
2022-08-27T20:42:42.336Z,57.46
2022-08-27T20:45:12.304Z,58.17
2022-08-27T20:47:42.622Z,58.47
2022-08-27T20:50:12.863Z,58.46
2022-08-27T20:52:41.609Z,59.13
2022-08-27T20:55:12.218Z,59.45
2022-08-27T20:58:05.981Z,59.94
2022-08-27T21:00:35.267Z,61.16
2022-08-27T21:03:04.660Z,61.53
2022-08-27T21:05:34.775Z,61.75
2022-08-27T21:08:03.198Z,62.47
2022-08-27T21:10:31.132Z,62.44
2022-08-27T21:13:03.280Z,62.46
2022-08-27T21:15:32.906Z,63.16
2022-08-27T21:18:00.760Z,63.48
2022-08-27T21:20:32.206Z,63.66
2022-08-27T21:23:00.575Z,64.07
2022-08-27T21:25:29.304Z,63.83
2022-08-27T21:27:57.959Z,63.42
2022-08-27T21:30:26.462Z,64.68
2022-08-27T21:32:55.809Z,64.95
2022-08-27T21:35:26.476Z,65.96
2022-08-27T21:37:57.405Z,65.99
2022-08-27T21:40:26.411Z,66.78
2022-08-27T21:42:55.133Z,67.70
2022-08-27T21:45:23.453Z,67.12
2022-08-27T21:47:51.895Z,67.38
2022-08-27T21:50:20.765Z,67.98
2022-08-27T21:52:49.455Z,69.23
2022-08-27T21:55:19.500Z,69.57
2022-08-27T21:57:47.386Z,69.32
2022-08-27T22:00:40.510Z,69.50
2022-08-27T22:03:11.104Z,70.61
2022-08-27T22:05:41.303Z,71.35
2022-08-27T22:08:09.631Z,71.63
2022-08-27T22:10:39.512Z,72.10
2022-08-27T22:13:08.146Z,72.05
2022-08-27T22:15:36.954Z,72.24
2022-08-27T22:18:05.552Z,71.72
2022-08-27T22:20:34.000Z,72.16
2022-08-27T22:23:02.323Z,72.41
2022-08-27T22:25:30.351Z,72.48
2022-08-27T22:27:59.899Z,72.77
2022-08-27T22:30:28.021Z,73.36
2022-08-27T22:32:55.947Z,73.99
2022-08-27T22:35:24.307Z,75.06
2022-08-27T22:37:55.522Z,75.86
2022-08-27T22:40:25.890Z,75.63
2022-08-27T22:42:55.673Z,75.99
2022-08-27T22:45:26.030Z,75.40
2022-08-27T22:47:53.945Z,75.47
2022-08-27T22:50:22.915Z,75.17
2022-08-27T22:52:51.235Z,74.70
2022-08-27T22:55:23.783Z,74.92
2022-08-27T22:57:53.908Z,75.10
2022-08-27T23:00:27.120Z,75.43
2022-08-27T23:02:55.549Z,75.59
2022-08-27T23:05:24.316Z,76.04
2022-08-27T23:07:54.780Z,75.63
2022-08-27T23:10:25.258Z,76.66
2022-08-27T23:12:54.633Z,77.47
2022-08-27T23:15:27.392Z,77.63
2022-08-27T23:17:55.532Z,77.38
2022-08-27T23:20:24.359Z,77.64
2022-08-27T23:22:53.435Z,78.21
2022-08-27T23:25:43.263Z,78.20
2022-08-27T23:28:14.780Z,77.40
2022-08-27T23:30:45.167Z,77.45
2022-08-27T23:33:13.456Z,77.84
2022-08-27T23:35:44.487Z,77.23
2022-08-27T23:38:12.685Z,77.47
2022-08-27T23:40:41.029Z,78.15
2022-08-27T23:43:09.017Z,78.80
2022-08-27T23:45:40.438Z,78.78
2022-08-27T23:48:10.718Z,80.12
2022-08-27T23:50:39.080Z,81.50
2022-08-27T23:53:08.036Z,81.15
2022-08-27T23:55:36.375Z,81.33
2022-08-27T23:58:04.755Z,80.65
